createdAt,value
2018-07-19T00:04:28.628Z,41.20
2018-07-19T00:06:55.841Z,41.20
2018-07-19T00:09:23.041Z,41.30
2018-07-19T00:11:50.789Z,41.40
2018-07-19T00:16:45.219Z,41.40
2018-07-19T00:19:14.501Z,41.40
2018-07-19T00:21:41.681Z,41.50
2018-07-19T00:24:08.905Z,41.50
2018-07-19T00:26:36.121Z,41.50
2018-07-19T00:29:03.317Z,41.70
2018-07-19T00:31:30.542Z,41.70
2018-07-19T00:33:58.081Z,41.70
2018-07-19T00:36:25.218Z,41.60
2018-07-19T00:41:20.026Z,41.80
2018-07-19T00:43:47.209Z,41.60
2018-07-19T00:46:14.423Z,41.60
2018-07-19T00:48:43.944Z,41.50
2018-07-19T00:51:11.127Z,41.40
2018-07-19T00:53:38.437Z,41.40
2018-07-19T00:56:07.668Z,41.30
2018-07-19T01:01:02.121Z,41.30
2018-07-19T01:03:29.746Z,41.30
2018-07-19T01:05:56.941Z,41.30
2018-07-19T01:08:24.177Z,41.40
2018-07-19T01:10:51.375Z,41.40
2018-07-19T01:13:18.589Z,41.40
2018-07-19T01:18:15.572Z,41.60
2018-07-19T01:20:42.741Z,41.60
2018-07-19T01:23:10.274Z,41.70
2018-07-19T01:32:59.805Z,42.00
2018-07-19T01:35:27.002Z,42.00
2018-07-19T01:37:54.204Z,42.10
2018-07-19T01:40:21.778Z,42.20
2018-07-19T01:45:16.235Z,42.30
2018-07-19T01:47:43.861Z,42.10
2018-07-19T01:50:11.505Z,42.10
2018-07-19T01:52:38.704Z,42.00
2018-07-19T01:55:06.878Z,42.00
2018-07-19T02:00:01.408Z,42.00
2018-07-19T02:02:28.620Z,42.00
2018-07-19T02:04:55.837Z,42.00
2018-07-19T02:07:23.058Z,42.00
2018-07-19T02:12:17.565Z,42.00
2018-07-19T02:17:12.492Z,41.80
2018-07-19T02:22:06.925Z,41.80
2018-07-19T02:29:31.226Z,42.10
2018-07-19T02:31:58.449Z,42.10
2018-07-19T02:34:25.652Z,42.20
2018-07-19T02:39:20.430Z,42.20
2018-07-19T02:41:47.637Z,42.20
2018-07-19T02:44:14.830Z,42.20
2018-07-19T02:46:43.126Z,42.30
2018-07-19T02:49:10.528Z,42.20
2018-07-19T02:51:38.718Z,42.20
2018-07-19T02:54:05.915Z,42.30
2018-07-19T02:56:33.101Z,42.30
2018-07-19T02:59:00.788Z,42.40
2018-07-19T03:01:27.983Z,42.40
2018-07-19T03:03:55.165Z,42.50
2018-07-19T03:06:22.665Z,42.50
2018-07-19T03:13:44.641Z,42.60
2018-07-19T03:16:11.833Z,42.60
2018-07-19T03:18:39.044Z,42.70
2018-07-19T03:21:06.254Z,42.70
2018-07-19T03:23:33.501Z,42.80
2018-07-19T03:26:00.716Z,43.10
2018-07-19T03:28:27.934Z,42.90
2018-07-19T03:30:55.179Z,43.00
2018-07-19T03:35:50.025Z,43.30
2018-07-19T03:38:17.233Z,43.50
2018-07-19T03:43:11.983Z,43.70
2018-07-19T03:45:39.281Z,43.80
2018-07-19T03:48:06.553Z,43.90
2018-07-19T03:50:33.832Z,44.00
2018-07-19T03:53:01.152Z,44.20
2018-07-19T03:55:31.926Z,44.40
2018-07-19T04:00:26.381Z,44.90
2018-07-19T04:02:53.894Z,45.30
2018-07-19T04:05:21.113Z,45.50
2018-07-19T04:07:48.329Z,45.70
2018-07-19T04:10:15.561Z,45.90
2018-07-19T04:20:09.153Z,46.70
2018-07-19T04:22:36.374Z,46.80
2018-07-19T04:25:03.951Z,47.10
2018-07-19T04:27:31.130Z,47.30
2018-07-19T04:29:58.355Z,47.50
2018-07-19T04:32:25.698Z,47.60
2018-07-19T04:34:53.185Z,47.80
2018-07-19T04:39:47.978Z,48.00
2018-07-19T04:44:42.435Z,48.20
2018-07-19T04:47:09.948Z,48.40
2018-07-19T04:52:04.385Z,48.60
2018-07-19T04:56:58.792Z,49.00
2018-07-19T05:01:53.274Z,49.30
2018-07-19T05:04:20.347Z,49.30
2018-07-19T05:06:47.509Z,49.30
2018-07-19T05:11:42.241Z,49.50
2018-07-19T05:16:36.810Z,49.50
2018-07-19T05:19:04.265Z,49.50
2018-07-19T05:21:31.625Z,49.60
2018-07-19T05:23:59.337Z,49.50
2018-07-19T05:26:26.497Z,49.60
2018-07-19T05:28:53.673Z,49.30
2018-07-19T05:31:20.853Z,49.30
2018-07-19T05:33:48.369Z,49.20
2018-07-19T05:36:15.541Z,49.00
2018-07-19T05:41:10.137Z,48.50
2018-07-19T05:43:37.316Z,48.50
2018-07-19T05:48:32.014Z,48.00
2018-07-19T05:50:59.205Z,47.70
2018-07-19T05:53:26.385Z,47.60
2018-07-19T05:55:53.761Z,47.40
2018-07-19T05:58:21.026Z,47.00
2018-07-19T06:00:48.266Z,46.80
2018-07-19T06:03:15.457Z,46.60
2018-07-19T06:05:42.793Z,46.30
2018-07-19T06:08:10.041Z,46.10
2018-07-19T06:10:39.281Z,45.90
2018-07-19T06:13:06.483Z,45.70
2018-07-19T06:15:33.673Z,45.70
2018-07-19T06:18:02.893Z,45.50
2018-07-19T06:20:30.245Z,45.50
2018-07-19T06:22:57.425Z,45.50
2018-07-19T06:27:51.912Z,45.40
2018-07-19T06:30:19.077Z,45.40
2018-07-19T06:32:46.254Z,45.30
2018-07-19T06:37:44.792Z,45.40
2018-07-19T06:40:12.641Z,45.40
2018-07-19T06:42:39.813Z,45.50
2018-07-19T06:45:06.977Z,45.50
2018-07-19T06:47:34.493Z,45.50
2018-07-19T06:50:01.668Z,45.50
2018-07-19T06:52:28.843Z,45.60
2018-07-19T06:54:58.100Z,45.80
2018-07-19T06:57:25.283Z,45.70
2018-07-19T07:02:19.949Z,45.90
2018-07-19T07:04:47.149Z,45.90
2018-07-19T07:09:41.599Z,46.20
2018-07-19T07:12:08.821Z,46.10
2018-07-19T07:14:36.008Z,46.10
2018-07-19T07:17:03.190Z,46.10
2018-07-19T07:19:30.374Z,46.10
2018-07-19T07:21:57.558Z,45.90
2018-07-19T07:26:52.149Z,45.70
2018-07-19T07:31:52.565Z,45.50
2018-07-19T07:34:19.753Z,45.60
2018-07-19T07:36:46.965Z,45.50
2018-07-19T07:39:14.127Z,45.40
2018-07-19T07:41:41.636Z,44.70
2018-07-19T07:44:08.854Z,44.70
2018-07-19T07:49:03.290Z,44.60
2018-07-19T07:51:30.445Z,44.00
2018-07-19T07:53:57.634Z,43.50
2018-07-19T07:58:52.029Z,43.60
2018-07-19T08:03:50.476Z,43.20
2018-07-19T08:06:17.645Z,42.60
2018-07-19T08:08:48.877Z,42.60
2018-07-19T08:11:16.011Z,42.70
2018-07-19T08:16:10.821Z,42.00
2018-07-19T08:18:37.998Z,41.80
2018-07-19T08:23:32.444Z,41.60
2018-07-19T08:25:59.608Z,41.20
2018-07-19T08:28:26.807Z,40.00
2018-07-19T08:33:21.270Z,40.30
2018-07-19T08:35:48.487Z,40.30
2018-07-19T08:38:15.657Z,40.50
2018-07-19T08:40:42.834Z,40.30
2018-07-19T08:43:10.027Z,39.50
2018-07-19T08:45:37.201Z,39.20
2018-07-19T08:48:04.661Z,39.00
2018-07-19T08:50:31.893Z,38.80
2018-07-19T08:52:59.086Z,38.60
2018-07-19T08:57:53.798Z,38.40
2018-07-19T09:00:20.963Z,38.80
2018-07-19T09:05:15.797Z,39.00
2018-07-19T09:10:16.221Z,38.50
2018-07-19T09:15:10.623Z,37.80
2018-07-19T09:17:38.096Z,37.90
2018-07-19T09:20:05.258Z,37.90
2018-07-19T09:22:32.597Z,38.00
2018-07-19T09:25:00.177Z,37.10
2018-07-19T09:27:27.346Z,36.90
2018-07-19T09:29:54.528Z,36.10
2018-07-19T09:32:21.709Z,36.50
2018-07-19T09:34:49.176Z,36.90
2018-07-19T09:37:16.669Z,36.70
2018-07-19T09:39:43.850Z,36.50
2018-07-19T09:42:11.029Z,36.70
2018-07-19T09:44:38.251Z,36.40
2018-07-19T09:52:00.254Z,36.70
2018-07-19T09:54:39.161Z,36.80
2018-07-19T09:57:06.282Z,36.40
2018-07-19T09:59:33.468Z,36.00
2018-07-19T10:04:28.273Z,35.70
2018-07-19T10:06:55.434Z,35.80
2018-07-19T10:09:22.606Z,36.10
2018-07-19T10:14:17.292Z,36.30
2018-07-19T10:16:44.482Z,36.10
2018-07-19T10:21:38.897Z,35.70
2018-07-19T10:26:33.328Z,35.70
2018-07-19T10:31:27.708Z,35.50
2018-07-19T10:36:22.137Z,35.50
2018-07-19T10:41:20.622Z,35.40
2018-07-19T10:46:17.081Z,34.60
2018-07-19T10:51:11.457Z,34.70
2018-07-19T10:53:38.640Z,34.40
2018-07-19T10:56:05.795Z,34.20
2018-07-19T10:58:32.985Z,34.40
2018-07-19T11:03:27.377Z,34.40
2018-07-19T11:05:54.570Z,34.30
2018-07-19T11:10:48.929Z,34.40
2018-07-19T11:13:16.094Z,34.20
2018-07-19T11:15:43.277Z,33.90
2018-07-19T11:20:37.687Z,34.10
2018-07-19T11:25:32.133Z,35.10
2018-07-19T11:27:59.309Z,35.10
2018-07-19T11:30:26.778Z,35.00
2018-07-19T11:32:53.966Z,34.80
2018-07-19T11:35:21.118Z,34.30
2018-07-19T11:37:48.287Z,34.40
2018-07-19T11:40:15.445Z,34.50
2018-07-19T11:42:42.621Z,34.30
2018-07-19T11:45:09.793Z,33.80
2018-07-19T11:47:36.957Z,33.60
2018-07-19T11:50:04.527Z,33.70
2018-07-19T11:52:32.013Z,33.40
2018-07-19T11:54:59.197Z,33.50
2018-07-19T11:57:26.353Z,33.80
2018-07-19T11:59:53.669Z,33.60
2018-07-19T12:02:20.839Z,33.80
2018-07-19T12:04:48.018Z,33.90
2018-07-19T12:07:15.182Z,33.50
2018-07-19T12:09:42.561Z,33.50
2018-07-19T12:12:09.725Z,33.70
2018-07-19T12:14:36.885Z,33.90
2018-07-19T12:17:08.177Z,34.20
2018-07-19T12:19:35.416Z,34.60
2018-07-19T12:22:02.613Z,34.70
2018-07-19T12:24:29.797Z,34.60
2018-07-19T12:26:56.981Z,34.40
2018-07-19T12:29:24.226Z,34.00
2018-07-19T12:31:51.401Z,33.50
2018-07-19T12:34:18.805Z,33.70
2018-07-19T12:39:13.181Z,33.40
2018-07-19T12:41:41.172Z,33.20
2018-07-19T12:44:08.607Z,33.50
2018-07-19T12:46:35.809Z,33.40
2018-07-19T12:49:03.245Z,33.80
2018-07-19T12:51:30.417Z,33.10
2018-07-19T12:58:52.097Z,33.00
2018-07-19T13:01:19.274Z,33.00
2018-07-19T13:03:48.430Z,32.80
2018-07-19T13:06:15.597Z,32.90
2018-07-19T13:08:42.809Z,32.60
2018-07-19T13:11:10.226Z,32.30
2018-07-19T13:16:04.634Z,32.20
2018-07-19T13:20:59.057Z,32.10
2018-07-19T13:25:53.853Z,32.00
2018-07-19T13:28:21.027Z,32.10
2018-07-19T13:30:48.209Z,31.90
2018-07-19T13:35:42.985Z,31.40
2018-07-19T13:38:10.145Z,31.30
2018-07-19T13:43:04.545Z,31.80
2018-07-19T13:45:31.709Z,31.90
2018-07-19T13:47:58.889Z,32.10
2018-07-19T13:50:26.054Z,31.70
2018-07-19T13:53:05.029Z,32.00
2018-07-19T13:55:32.747Z,31.50
2018-07-19T13:57:59.905Z,31.50
2018-07-19T14:02:54.282Z,31.50
2018-07-19T14:05:21.466Z,31.30
2018-07-19T14:10:16.157Z,30.70
2018-07-19T14:12:43.340Z,30.80
2018-07-19T14:17:41.741Z,30.70
2018-07-19T14:20:08.964Z,30.20
2018-07-19T14:22:36.137Z,30.30
2018-07-19T14:25:03.319Z,30.40
2018-07-19T14:27:30.500Z,30.50
2018-07-19T14:29:57.673Z,30.40
2018-07-19T14:32:24.840Z,30.20
2018-07-19T14:34:52.686Z,30.30
2018-07-19T14:37:20.141Z,30.00
2018-07-19T14:39:47.326Z,30.10
2018-07-19T14:42:14.489Z,30.20
2018-07-19T14:44:45.767Z,30.00
2018-07-19T14:47:12.955Z,30.00
2018-07-19T14:49:40.289Z,29.70
2018-07-19T14:54:35.045Z,29.80
2018-07-19T14:57:02.201Z,29.70
2018-07-19T14:59:29.373Z,29.50
2018-07-19T15:01:56.545Z,29.60
2018-07-19T15:04:23.711Z,29.80
2018-07-19T15:06:51.273Z,29.60
2018-07-19T15:09:18.453Z,29.50
2018-07-19T15:11:45.613Z,29.60
2018-07-19T15:16:40.431Z,29.40
2018-07-19T15:21:34.797Z,29.70
2018-07-19T15:24:01.956Z,29.80
2018-07-19T15:26:29.133Z,29.80
2018-07-19T15:28:56.615Z,29.90
2018-07-19T15:31:23.789Z,30.00
2018-07-19T15:33:51.013Z,30.10
2018-07-19T15:36:18.505Z,30.20
2018-07-19T15:41:12.905Z,30.40
2018-07-19T15:46:07.309Z,30.30
2018-07-19T15:48:34.527Z,30.60
2018-07-19T15:51:03.383Z,30.20
2018-07-19T15:53:30.621Z,30.00
2018-07-19T15:55:57.791Z,30.00
2018-07-19T16:00:52.161Z,30.70
2018-07-19T16:03:19.353Z,30.30
2018-07-19T16:05:46.911Z,30.10
2018-07-19T16:10:41.268Z,29.30
2018-07-19T16:13:08.440Z,29.10
2018-07-19T16:15:35.611Z,29.50
2018-07-19T16:18:02.800Z,29.80
2018-07-19T16:20:30.414Z,29.90
2018-07-19T16:22:57.574Z,30.00
2018-07-19T16:25:24.731Z,30.00
2018-07-19T16:27:51.894Z,29.60
2018-07-19T16:30:19.066Z,29.10
2018-07-19T16:32:46.293Z,29.20
2018-07-19T16:37:40.813Z,29.20
2018-07-19T16:40:07.992Z,29.30
2018-07-19T16:42:35.166Z,29.60
2018-07-19T16:45:04.454Z,30.00
2018-07-19T16:47:31.637Z,30.00
2018-07-19T16:52:26.006Z,30.30
2018-07-19T16:57:26.075Z,30.40
2018-07-19T16:59:53.257Z,30.60
2018-07-19T17:02:20.453Z,30.70
2018-07-19T17:04:47.633Z,30.80
2018-07-19T17:07:15.260Z,31.00
2018-07-19T17:09:42.840Z,30.00
2018-07-19T17:12:09.969Z,29.80
2018-07-19T17:14:37.130Z,30.00
2018-07-19T17:17:04.841Z,30.50
2018-07-19T17:19:32.046Z,30.70
2018-07-19T17:21:59.213Z,31.30
2018-07-19T17:24:26.730Z,31.60
2018-07-19T17:26:53.897Z,32.00
2018-07-19T17:31:48.309Z,32.40
2018-07-19T17:34:15.694Z,32.30
2018-07-19T17:39:11.467Z,32.20
2018-07-19T17:41:38.697Z,32.10
2018-07-19T17:44:05.983Z,32.30
2018-07-19T17:46:33.161Z,32.40
2018-07-19T17:49:00.370Z,32.50
2018-07-19T17:51:27.617Z,32.40
2018-07-19T17:53:54.851Z,32.00
2018-07-19T17:58:51.665Z,31.40
2018-07-19T18:01:19.050Z,31.70
2018-07-19T18:03:46.274Z,31.70
2018-07-19T18:06:13.485Z,31.60
2018-07-19T18:08:40.698Z,31.60
2018-07-19T18:11:07.968Z,31.50
2018-07-19T18:13:35.173Z,31.50
2018-07-19T18:16:02.353Z,31.80
2018-07-19T18:18:29.544Z,32.00
2018-07-19T18:20:56.741Z,31.80
2018-07-19T18:23:24.186Z,31.70
2018-07-19T18:25:51.367Z,31.50
2018-07-19T18:30:45.974Z,31.30
2018-07-19T18:35:40.419Z,31.80
2018-07-19T18:38:08.024Z,31.70
2018-07-19T18:40:35.333Z,31.60
2018-07-19T18:43:02.544Z,31.40
2018-07-19T18:45:29.733Z,31.50
2018-07-19T18:50:24.173Z,31.10
2018-07-19T18:52:52.291Z,31.10
2018-07-19T18:55:19.765Z,31.10
2018-07-19T18:57:46.953Z,31.00
2018-07-19T19:02:41.385Z,31.50
2018-07-19T19:05:08.601Z,31.90
2018-07-19T19:07:35.921Z,32.00
2018-07-19T19:10:03.234Z,31.90
2018-07-19T19:12:30.455Z,31.90
2018-07-19T19:14:57.646Z,32.10
2018-07-19T19:19:52.053Z,32.70
2018-07-19T19:24:46.473Z,33.90
2018-07-19T19:29:45.155Z,33.50
2018-07-19T19:32:12.337Z,33.80
2018-07-19T19:37:06.740Z,33.90
2018-07-19T19:42:01.142Z,33.60
2018-07-19T19:44:28.334Z,33.70
2018-07-19T19:46:55.526Z,33.80
2018-07-19T19:49:22.758Z,33.90
2018-07-19T19:51:50.581Z,34.10
2018-07-19T19:54:17.834Z,34.40
2018-07-19T19:56:44.971Z,34.70
2018-07-19T19:59:12.192Z,34.80
2018-07-19T20:04:06.829Z,35.10
2018-07-19T20:06:34.030Z,35.30
2018-07-19T20:09:01.223Z,35.50
2018-07-19T20:11:29.123Z,35.90
2018-07-19T20:13:58.357Z,36.00
2018-07-19T20:16:25.581Z,36.10
2018-07-19T20:18:52.795Z,36.30
2018-07-19T20:23:47.268Z,36.50
2018-07-19T20:26:14.499Z,36.70
2018-07-19T20:28:42.983Z,36.90
2018-07-19T20:31:10.111Z,37.50
2018-07-19T20:36:04.687Z,37.60
2018-07-19T20:38:31.936Z,37.70
2018-07-19T20:40:59.332Z,37.80
2018-07-19T20:48:21.602Z,38.20
2018-07-19T20:50:48.790Z,38.20
2018-07-19T20:55:43.177Z,38.80
2018-07-19T21:00:37.599Z,39.50
2018-07-19T21:05:32.352Z,39.40
2018-07-19T21:07:59.550Z,39.80
2018-07-19T21:10:26.900Z,39.80
2018-07-19T21:12:54.077Z,39.80
2018-07-19T21:15:21.272Z,40.00
2018-07-19T21:17:48.486Z,40.10
2018-07-19T21:20:15.668Z,40.20
2018-07-19T21:25:14.194Z,40.10
2018-07-19T21:27:41.402Z,40.60
2018-07-19T21:30:08.593Z,40.80
2018-07-19T21:35:03.013Z,40.80
2018-07-19T21:39:59.782Z,40.80
2018-07-19T21:42:26.982Z,40.60
2018-07-19T21:45:00.202Z,40.50
2018-07-19T21:47:27.381Z,40.50
2018-07-19T21:52:21.793Z,40.30
2018-07-19T21:54:48.981Z,40.20
2018-07-19T21:57:16.157Z,40.10
2018-07-19T21:59:43.352Z,40.00
2018-07-19T22:02:12.250Z,40.20
2018-07-19T22:09:33.932Z,40.40
2018-07-19T22:12:01.115Z,40.50
2018-07-19T22:14:28.304Z,40.60
2018-07-19T22:16:55.536Z,40.60
2018-07-19T22:19:22.701Z,40.50
2018-07-19T22:21:56.025Z,40.50
2018-07-19T22:24:23.222Z,40.60
2018-07-19T22:26:50.421Z,40.70
2018-07-19T22:29:17.593Z,40.60
2018-07-19T22:31:44.755Z,40.60
2018-07-19T22:34:11.950Z,40.60
2018-07-19T22:36:39.127Z,40.50
2018-07-19T22:39:08.330Z,40.60
2018-07-19T22:41:37.575Z,40.60
2018-07-19T22:44:04.746Z,40.40
2018-07-19T22:46:31.933Z,40.50
2018-07-19T22:48:59.123Z,40.50
2018-07-19T22:51:26.314Z,40.40
2018-07-19T22:56:22.813Z,40.10
2018-07-19T22:58:50.074Z,40.00
2018-07-19T23:01:17.689Z,40.30
2018-07-19T23:06:12.133Z,39.90
2018-07-19T23:11:06.546Z,39.90
2018-07-19T23:13:33.740Z,39.70
2018-07-19T23:16:00.931Z,39.80
2018-07-19T23:20:55.789Z,39.70
2018-07-19T23:23:22.985Z,39.80
2018-07-19T23:25:50.179Z,39.90
2018-07-19T23:33:11.894Z,39.80
2018-07-19T23:35:45.027Z,39.80
2018-07-19T23:38:17.594Z,39.80
2018-07-19T23:40:46.797Z,39.80
2018-07-19T23:43:19.994Z,39.70
2018-07-19T23:45:52.870Z,39.70
2018-07-19T23:48:20.085Z,39.70
2018-07-19T23:50:47.269Z,39.70
2018-07-19T23:53:14.464Z,39.70
2018-07-19T23:58:09.377Z,40.00
